sensor_id;sensor_type;location;lat;lon;timestamp;P1;durP1;ratioP1;P2;durP2;ratioP2
57087;SDS011;42965;52.846;6.614;2023-06-22T00:01:12;39.95;;;35.95;;
57087;SDS011;42965;52.846;6.614;2023-06-22T00:03:38;40.38;;;36.30;;
57087;SDS011;42965;52.846;6.614;2023-06-22T00:06:04;43.30;;;38.90;;
57087;SDS011;42965;52.846;6.614;2023-06-22T00:08:30;41.20;;;36.95;;
57087;SDS011;42965;52.846;6.614;2023-06-22T00:10:57;41.95;;;37.20;;
57087;SDS011;42965;52.846;6.614;2023-06-22T00:13:23;43.13;;;38.83;;
57087;SDS011;42965;52.846;6.614;2023-06-22T00:15:49;43.88;;;39.55;;
57087;SDS011;42965;52.846;6.614;2023-06-22T00:18:16;45.00;;;40.38;;
57087;SDS011;42965;52.846;6.614;2023-06-22T00:20:42;46.03;;;41.08;;
57087;SDS011;42965;52.846;6.614;2023-06-22T00:23:11;45.70;;;41.17;;
57087;SDS011;42965;52.846;6.614;2023-06-22T00:25:42;47.50;;;42.58;;
57087;SDS011;42965;52.846;6.614;2023-06-22T00:28:09;47.40;;;42.63;;
57087;SDS011;42965;52.846;6.614;2023-06-22T00:30:35;44.28;;;39.30;;
57087;SDS011;42965;52.846;6.614;2023-06-22T00:33:01;45.35;;;40.88;;
57087;SDS011;42965;52.846;6.614;2023-06-22T00:35:28;45.28;;;40.80;;
57087;SDS011;42965;52.846;6.614;2023-06-22T00:37:58;47.13;;;42.08;;
57087;SDS011;42965;52.846;6.614;2023-06-22T00:40:30;48.80;;;44.05;;
57087;SDS011;42965;52.846;6.614;2023-06-22T00:42:58;49.97;;;45.03;;
57087;SDS011;42965;52.846;6.614;2023-06-22T00:45:25;48.85;;;44.10;;
57087;SDS011;42965;52.846;6.614;2023-06-22T00:47:52;51.75;;;46.33;;
57087;SDS011;42965;52.846;6.614;2023-06-22T00:50:23;52.50;;;47.17;;
57087;SDS011;42965;52.846;6.614;2023-06-22T00:52:51;54.58;;;49.03;;
57087;SDS011;42965;52.846;6.614;2023-06-22T00:55:19;55.40;;;49.75;;
57087;SDS011;42965;52.846;6.614;2023-06-22T00:57:47;52.60;;;47.40;;
57087;SDS011;42965;52.846;6.614;2023-06-22T01:00:14;56.67;;;51.17;;
57087;SDS011;42965;52.846;6.614;2023-06-22T01:02:43;54.38;;;49.17;;
57087;SDS011;42965;52.846;6.614;2023-06-22T01:05:12;53.90;;;48.70;;
57087;SDS011;42965;52.846;6.614;2023-06-22T01:07:41;53.13;;;47.97;;
57087;SDS011;42965;52.846;6.614;2023-06-22T01:10:25;54.92;;;49.25;;
57087;SDS011;42965;52.846;6.614;2023-06-22T01:13:16;57.20;;;51.08;;
57087;SDS011;42965;52.846;6.614;2023-06-22T01:16:03;55.83;;;49.85;;
57087;SDS011;42965;52.846;6.614;2023-06-22T01:18:38;55.38;;;49.78;;
57087;SDS011;42965;52.846;6.614;2023-06-22T01:21:07;57.92;;;51.95;;
57087;SDS011;42965;52.846;6.614;2023-06-22T01:23:51;57.13;;;51.10;;
57087;SDS011;42965;52.846;6.614;2023-06-22T01:29:08;54.03;;;48.63;;
57087;SDS011;42965;52.846;6.614;2023-06-22T01:31:37;56.17;;;50.45;;
57087;SDS011;42965;52.846;6.614;2023-06-22T01:34:06;56.95;;;50.95;;
57087;SDS011;42965;52.846;6.614;2023-06-22T01:36:35;53.35;;;47.88;;
57087;SDS011;42965;52.846;6.614;2023-06-22T01:39:02;52.10;;;46.58;;
57087;SDS011;42965;52.846;6.614;2023-06-22T01:41:33;54.75;;;48.75;;
57087;SDS011;42965;52.846;6.614;2023-06-22T01:44:02;52.03;;;46.47;;
57087;SDS011;42965;52.846;6.614;2023-06-22T01:46:36;51.00;;;45.72;;
57087;SDS011;42965;52.846;6.614;2023-06-22T01:49:04;49.70;;;44.75;;
57087;SDS011;42965;52.846;6.614;2023-06-22T01:51:30;48.85;;;43.55;;
57087;SDS011;42965;52.846;6.614;2023-06-22T01:53:59;50.00;;;44.55;;
57087;SDS011;42965;52.846;6.614;2023-06-22T01:56:26;49.45;;;44.40;;
57087;SDS011;42965;52.846;6.614;2023-06-22T01:58:58;45.63;;;41.20;;
57087;SDS011;42965;52.846;6.614;2023-06-22T02:01:27;48.42;;;43.58;;
57087;SDS011;42965;52.846;6.614;2023-06-22T02:04:09;45.95;;;41.40;;
57087;SDS011;42965;52.846;6.614;2023-06-22T02:06:42;45.67;;;41.10;;
57087;SDS011;42965;52.846;6.614;2023-06-22T02:09:12;46.28;;;41.60;;
57087;SDS011;42965;52.846;6.614;2023-06-22T02:11:42;47.58;;;42.83;;
57087;SDS011;42965;52.846;6.614;2023-06-22T02:14:12;48.90;;;43.90;;
57087;SDS011;42965;52.846;6.614;2023-06-22T02:16:40;50.92;;;45.72;;
57087;SDS011;42965;52.846;6.614;2023-06-22T02:19:08;48.85;;;44.03;;
57087;SDS011;42965;52.846;6.614;2023-06-22T02:21:35;49.20;;;44.33;;
57087;SDS011;42965;52.846;6.614;2023-06-22T02:24:01;51.25;;;46.13;;
57087;SDS011;42965;52.846;6.614;2023-06-22T02:26:29;50.45;;;45.28;;
57087;SDS011;42965;52.846;6.614;2023-06-22T02:28:56;50.95;;;45.78;;
57087;SDS011;42965;52.846;6.614;2023-06-22T02:31:24;50.03;;;44.70;;
57087;SDS011;42965;52.846;6.614;2023-06-22T02:33:57;53.10;;;47.53;;
57087;SDS011;42965;52.846;6.614;2023-06-22T02:36:24;52.72;;;47.00;;
57087;SDS011;42965;52.846;6.614;2023-06-22T02:38:52;51.00;;;45.72;;
57087;SDS011;42965;52.846;6.614;2023-06-22T02:41:19;50.72;;;45.47;;
57087;SDS011;42965;52.846;6.614;2023-06-22T02:43:46;50.22;;;45.05;;
57087;SDS011;42965;52.846;6.614;2023-06-22T02:46:12;49.53;;;44.47;;
57087;SDS011;42965;52.846;6.614;2023-06-22T02:48:41;53.38;;;47.88;;
57087;SDS011;42965;52.846;6.614;2023-06-22T02:51:08;54.72;;;48.80;;
57087;SDS011;42965;52.846;6.614;2023-06-22T02:53:36;53.45;;;48.17;;
57087;SDS011;42965;52.846;6.614;2023-06-22T02:56:02;56.22;;;50.33;;
57087;SDS011;42965;52.846;6.614;2023-06-22T02:58:32;57.92;;;51.83;;
57087;SDS011;42965;52.846;6.614;2023-06-22T03:01:06;55.33;;;50.00;;
57087;SDS011;42965;52.846;6.614;2023-06-22T03:03:34;56.33;;;50.42;;
57087;SDS011;42965;52.846;6.614;2023-06-22T03:06:00;55.22;;;49.83;;
57087;SDS011;42965;52.846;6.614;2023-06-22T03:08:27;56.15;;;50.47;;
57087;SDS011;42965;52.846;6.614;2023-06-22T03:10:55;56.20;;;50.30;;
57087;SDS011;42965;52.846;6.614;2023-06-22T03:13:22;53.17;;;47.67;;
57087;SDS011;42965;52.846;6.614;2023-06-22T03:15:48;54.45;;;48.70;;
57087;SDS011;42965;52.846;6.614;2023-06-22T03:18:14;53.05;;;47.83;;
57087;SDS011;42965;52.846;6.614;2023-06-22T03:20:44;53.47;;;48.17;;
57087;SDS011;42965;52.846;6.614;2023-06-22T03:23:11;53.35;;;47.95;;
57087;SDS011;42965;52.846;6.614;2023-06-22T03:25:37;54.53;;;48.95;;
57087;SDS011;42965;52.846;6.614;2023-06-22T03:28:04;44.67;;;40.40;;
57087;SDS011;42965;52.846;6.614;2023-06-22T03:30:31;44.60;;;40.00;;
57087;SDS011;42965;52.846;6.614;2023-06-22T03:33:00;46.85;;;42.35;;
57087;SDS011;42965;52.846;6.614;2023-06-22T03:35:26;47.38;;;42.60;;
57087;SDS011;42965;52.846;6.614;2023-06-22T03:37:53;51.65;;;46.20;;
57087;SDS011;42965;52.846;6.614;2023-06-22T03:40:19;50.47;;;45.30;;
57087;SDS011;42965;52.846;6.614;2023-06-22T03:42:46;51.25;;;45.97;;
57087;SDS011;42965;52.846;6.614;2023-06-22T03:45:12;49.00;;;44.05;;
57087;SDS011;42965;52.846;6.614;2023-06-22T03:47:38;47.88;;;42.78;;
57087;SDS011;42965;52.846;6.614;2023-06-22T03:50:05;46.78;;;41.83;;
57087;SDS011;42965;52.846;6.614;2023-06-22T03:52:32;44.58;;;40.30;;
57087;SDS011;42965;52.846;6.614;2023-06-22T03:54:59;46.38;;;41.13;;
57087;SDS011;42965;52.846;6.614;2023-06-22T03:57:25;46.38;;;41.75;;
57087;SDS011;42965;52.846;6.614;2023-06-22T03:59:52;44.47;;;40.05;;
57087;SDS011;42965;52.846;6.614;2023-06-22T04:02:19;45.70;;;41.10;;
57087;SDS011;42965;52.846;6.614;2023-06-22T04:04:46;46.08;;;41.45;;
57087;SDS011;42965;52.846;6.614;2023-06-22T04:07:12;45.13;;;40.72;;
57087;SDS011;42965;52.846;6.614;2023-06-22T04:09:38;44.47;;;40.17;;
57087;SDS011;42965;52.846;6.614;2023-06-22T04:12:04;44.13;;;39.88;;
57087;SDS011;42965;52.846;6.614;2023-06-22T04:14:31;44.05;;;39.78;;
57087;SDS011;42965;52.846;6.614;2023-06-22T04:16:58;43.10;;;38.83;;
57087;SDS011;42965;52.846;6.614;2023-06-22T04:19:24;39.63;;;35.85;;
57087;SDS011;42965;52.846;6.614;2023-06-22T04:21:51;42.08;;;37.88;;
57087;SDS011;42965;52.846;6.614;2023-06-22T04:24:17;41.70;;;37.58;;
57087;SDS011;42965;52.846;6.614;2023-06-22T04:26:44;41.40;;;37.38;;
57087;SDS011;42965;52.846;6.614;2023-06-22T04:29:12;41.72;;;37.53;;
57087;SDS011;42965;52.846;6.614;2023-06-22T04:31:38;43.47;;;39.28;;
57087;SDS011;42965;52.846;6.614;2023-06-22T04:34:05;43.22;;;38.95;;
57087;SDS011;42965;52.846;6.614;2023-06-22T04:36:36;48.45;;;43.53;;
57087;SDS011;42965;52.846;6.614;2023-06-22T04:39:05;48.05;;;43.05;;
57087;SDS011;42965;52.846;6.614;2023-06-22T04:41:32;47.08;;;42.33;;
57087;SDS011;42965;52.846;6.614;2023-06-22T04:44:17;50.47;;;44.97;;
57087;SDS011;42965;52.846;6.614;2023-06-22T04:46:54;49.63;;;44.60;;
57087;SDS011;42965;52.846;6.614;2023-06-22T04:49:34;52.83;;;47.40;;
57087;SDS011;42965;52.846;6.614;2023-06-22T04:52:09;52.60;;;47.33;;
57087;SDS011;42965;52.846;6.614;2023-06-22T04:54:38;53.83;;;48.17;;
57087;SDS011;42965;52.846;6.614;2023-06-22T04:57:06;53.35;;;47.45;;
57087;SDS011;42965;52.846;6.614;2023-06-22T04:59:36;50.70;;;45.45;;
57087;SDS011;42965;52.846;6.614;2023-06-22T05:02:04;51.85;;;46.65;;
57087;SDS011;42965;52.846;6.614;2023-06-22T05:04:31;52.13;;;47.03;;
57087;SDS011;42965;52.846;6.614;2023-06-22T05:06:58;50.83;;;45.72;;
57087;SDS011;42965;52.846;6.614;2023-06-22T05:09:28;51.25;;;46.10;;
57087;SDS011;42965;52.846;6.614;2023-06-22T05:11:55;51.88;;;46.88;;
57087;SDS011;42965;52.846;6.614;2023-06-22T05:14:25;50.35;;;45.25;;
57087;SDS011;42965;52.846;6.614;2023-06-22T05:16:51;47.90;;;43.17;;
57087;SDS011;42965;52.846;6.614;2023-06-22T05:19:17;45.65;;;41.33;;
57087;SDS011;42965;52.846;6.614;2023-06-22T05:21:44;46.15;;;41.65;;
57087;SDS011;42965;52.846;6.614;2023-06-22T05:24:12;48.75;;;44.08;;
57087;SDS011;42965;52.846;6.614;2023-06-22T05:26:38;45.47;;;41.17;;
57087;SDS011;42965;52.846;6.614;2023-06-22T05:29:05;47.35;;;42.72;;
57087;SDS011;42965;52.846;6.614;2023-06-22T05:31:31;45.00;;;40.60;;
57087;SDS011;42965;52.846;6.614;2023-06-22T05:33:58;44.35;;;39.88;;
57087;SDS011;42965;52.846;6.614;2023-06-22T05:36:25;42.72;;;38.53;;
57087;SDS011;42965;52.846;6.614;2023-06-22T05:38:51;42.33;;;38.20;;
57087;SDS011;42965;52.846;6.614;2023-06-22T05:41:19;114.13;;;103.50;;
57087;SDS011;42965;52.846;6.614;2023-06-22T05:43:46;80.82;;;73.13;;
57087;SDS011;42965;52.846;6.614;2023-06-22T05:46:12;42.10;;;37.97;;
57087;SDS011;42965;52.846;6.614;2023-06-22T05:48:39;44.88;;;40.40;;
57087;SDS011;42965;52.846;6.614;2023-06-22T05:51:05;38.35;;;34.53;;
57087;SDS011;42965;52.846;6.614;2023-06-22T05:53:31;39.67;;;35.97;;
57087;SDS011;42965;52.846;6.614;2023-06-22T05:55:57;38.20;;;34.47;;
57087;SDS011;42965;52.846;6.614;2023-06-22T05:58:24;38.40;;;34.70;;
57087;SDS011;42965;52.846;6.614;2023-06-22T06:00:50;35.83;;;32.50;;
57087;SDS011;42965;52.846;6.614;2023-06-22T06:03:16;33.55;;;30.48;;
57087;SDS011;42965;52.846;6.614;2023-06-22T06:05:43;34.45;;;31.05;;
57087;SDS011;42965;52.846;6.614;2023-06-22T06:08:10;33.85;;;30.60;;
57087;SDS011;42965;52.846;6.614;2023-06-22T06:10:37;31.58;;;28.52;;
57087;SDS011;42965;52.846;6.614;2023-06-22T06:13:04;31.70;;;28.75;;
57087;SDS011;42965;52.846;6.614;2023-06-22T06:15:31;30.17;;;27.23;;
57087;SDS011;42965;52.846;6.614;2023-06-22T06:17:58;28.30;;;25.60;;
57087;SDS011;42965;52.846;6.614;2023-06-22T06:20:25;27.75;;;25.02;;
57087;SDS011;42965;52.846;6.614;2023-06-22T06:22:53;25.67;;;23.17;;
57087;SDS011;42965;52.846;6.614;2023-06-22T06:25:20;25.58;;;23.08;;
57087;SDS011;42965;52.846;6.614;2023-06-22T06:27:47;27.75;;;25.05;;
57087;SDS011;42965;52.846;6.614;2023-06-22T06:30:17;23.33;;;21.13;;
57087;SDS011;42965;52.846;6.614;2023-06-22T06:32:49;20.98;;;19.05;;
57087;SDS011;42965;52.846;6.614;2023-06-22T06:35:16;20.25;;;18.27;;
57087;SDS011;42965;52.846;6.614;2023-06-22T06:37:43;22.15;;;20.05;;
57087;SDS011;42965;52.846;6.614;2023-06-22T06:40:12;18.88;;;16.95;;
57087;SDS011;42965;52.846;6.614;2023-06-22T06:42:40;18.83;;;17.02;;
57087;SDS011;42965;52.846;6.614;2023-06-22T06:45:15;18.45;;;16.65;;
57087;SDS011;42965;52.846;6.614;2023-06-22T06:47:44;16.88;;;15.10;;
57087;SDS011;42965;52.846;6.614;2023-06-22T06:50:11;17.23;;;15.63;;
57087;SDS011;42965;52.846;6.614;2023-06-22T06:52:38;17.95;;;16.25;;
57087;SDS011;42965;52.846;6.614;2023-06-22T06:55:07;19.77;;;17.98;;
57087;SDS011;42965;52.846;6.614;2023-06-22T06:57:40;15.93;;;14.25;;
57087;SDS011;42965;52.846;6.614;2023-06-22T07:00:11;17.13;;;15.38;;
57087;SDS011;42965;52.846;6.614;2023-06-22T07:02:39;15.48;;;13.27;;
57087;SDS011;42965;52.846;6.614;2023-06-22T07:05:07;14.80;;;13.30;;
57087;SDS011;42965;52.846;6.614;2023-06-22T07:07:35;16.08;;;12.23;;
57087;SDS011;42965;52.846;6.614;2023-06-22T07:10:01;18.58;;;16.65;;
57087;SDS011;42965;52.846;6.614;2023-06-22T07:12:28;12.73;;;11.40;;
57087;SDS011;42965;52.846;6.614;2023-06-22T07:15:02;14.63;;;12.10;;
57087;SDS011;42965;52.846;6.614;2023-06-22T07:17:30;12.10;;;10.80;;
57087;SDS011;42965;52.846;6.614;2023-06-22T07:19:57;17.25;;;15.57;;
57087;SDS011;42965;52.846;6.614;2023-06-22T07:22:23;24.23;;;21.88;;
57087;SDS011;42965;52.846;6.614;2023-06-22T07:24:49;24.63;;;22.10;;
57087;SDS011;42965;52.846;6.614;2023-06-22T07:27:16;13.90;;;11.98;;
57087;SDS011;42965;52.846;6.614;2023-06-22T07:29:46;13.35;;;12.00;;
57087;SDS011;42965;52.846;6.614;2023-06-22T07:32:13;12.63;;;11.32;;
57087;SDS011;42965;52.846;6.614;2023-06-22T07:34:39;17.80;;;16.05;;
57087;SDS011;42965;52.846;6.614;2023-06-22T07:37:06;16.30;;;14.07;;
57087;SDS011;42965;52.846;6.614;2023-06-22T07:39:33;15.18;;;13.55;;
57087;SDS011;42965;52.846;6.614;2023-06-22T07:42:03;10.75;;;9.65;;
57087;SDS011;42965;52.846;6.614;2023-06-22T07:44:29;9.45;;;8.00;;
57087;SDS011;42965;52.846;6.614;2023-06-22T07:46:56;14.18;;;12.73;;
57087;SDS011;42965;52.846;6.614;2023-06-22T07:49:22;10.38;;;9.00;;
57087;SDS011;42965;52.846;6.614;2023-06-22T07:51:48;10.32;;;9.32;;
57087;SDS011;42965;52.846;6.614;2023-06-22T07:54:15;8.80;;;7.80;;
57087;SDS011;42965;52.846;6.614;2023-06-22T07:56:42;13.55;;;12.02;;
57087;SDS011;42965;52.846;6.614;2023-06-22T07:59:09;9.73;;;6.72;;
57087;SDS011;42965;52.846;6.614;2023-06-22T08:01:35;9.85;;;7.53;;
57087;SDS011;42965;52.846;6.614;2023-06-22T08:04:01;10.85;;;8.95;;
57087;SDS011;42965;52.846;6.614;2023-06-22T08:06:29;10.05;;;8.93;;
57087;SDS011;42965;52.846;6.614;2023-06-22T08:08:56;7.75;;;7.00;;
57087;SDS011;42965;52.846;6.614;2023-06-22T08:11:24;15.25;;;13.73;;
57087;SDS011;42965;52.846;6.614;2023-06-22T08:13:51;12.57;;;10.90;;
57087;SDS011;42965;52.846;6.614;2023-06-22T08:16:18;12.20;;;10.85;;
57087;SDS011;42965;52.846;6.614;2023-06-22T08:18:47;8.82;;;8.00;;
57087;SDS011;42965;52.846;6.614;2023-06-22T08:21:16;11.82;;;10.65;;
57087;SDS011;42965;52.846;6.614;2023-06-22T08:23:42;11.68;;;7.10;;
57087;SDS011;42965;52.846;6.614;2023-06-22T08:26:09;10.38;;;7.63;;
57087;SDS011;42965;52.846;6.614;2023-06-22T08:28:38;11.02;;;9.63;;
57087;SDS011;42965;52.846;6.614;2023-06-22T08:31:04;9.30;;;8.40;;
57087;SDS011;42965;52.846;6.614;2023-06-22T08:33:30;18.58;;;16.67;;
57087;SDS011;42965;52.846;6.614;2023-06-22T08:35:57;17.45;;;15.77;;
57087;SDS011;42965;52.846;6.614;2023-06-22T08:38:25;11.35;;;7.75;;
57087;SDS011;42965;52.846;6.614;2023-06-22T08:40:56;17.33;;;15.52;;
57087;SDS011;42965;52.846;6.614;2023-06-22T08:43:23;13.15;;;11.85;;
57087;SDS011;42965;52.846;6.614;2023-06-22T08:45:49;10.43;;;9.23;;
57087;SDS011;42965;52.846;6.614;2023-06-22T08:48:16;22.23;;;20.13;;
57087;SDS011;42965;52.846;6.614;2023-06-22T08:50:42;14.77;;;13.35;;
57087;SDS011;42965;52.846;6.614;2023-06-22T08:53:08;12.15;;;11.05;;
57087;SDS011;42965;52.846;6.614;2023-06-22T08:55:34;15.32;;;13.73;;
57087;SDS011;42965;52.846;6.614;2023-06-22T08:58:01;10.95;;;9.30;;
57087;SDS011;42965;52.846;6.614;2023-06-22T09:00:27;18.42;;;16.70;;
57087;SDS011;42965;52.846;6.614;2023-06-22T09:02:54;13.23;;;9.57;;
57087;SDS011;42965;52.846;6.614;2023-06-22T09:07:51;14.75;;;13.27;;
57087;SDS011;42965;52.846;6.614;2023-06-22T09:10:20;10.30;;;9.02;;
57087;SDS011;42965;52.846;6.614;2023-06-22T09:12:46;9.45;;;7.70;;
57087;SDS011;42965;52.846;6.614;2023-06-22T09:15:12;10.27;;;9.05;;
57087;SDS011;42965;52.846;6.614;2023-06-22T09:17:40;8.77;;;7.38;;
57087;SDS011;42965;52.846;6.614;2023-06-22T09:20:06;7.45;;;6.70;;
57087;SDS011;42965;52.846;6.614;2023-06-22T09:22:36;11.02;;;9.88;;
57087;SDS011;42965;52.846;6.614;2023-06-22T09:25:02;7.85;;;6.70;;
57087;SDS011;42965;52.846;6.614;2023-06-22T09:27:29;12.07;;;10.68;;
57087;SDS011;42965;52.846;6.614;2023-06-22T09:29:56;12.55;;;9.23;;
57087;SDS011;42965;52.846;6.614;2023-06-22T09:32:24;9.30;;;8.30;;
57087;SDS011;42965;52.846;6.614;2023-06-22T09:34:51;10.82;;;9.73;;
57087;SDS011;42965;52.846;6.614;2023-06-22T09:37:19;9.02;;;8.00;;
57087;SDS011;42965;52.846;6.614;2023-06-22T09:39:46;10.32;;;7.75;;
57087;SDS011;42965;52.846;6.614;2023-06-22T09:42:12;11.68;;;9.00;;
57087;SDS011;42965;52.846;6.614;2023-06-22T09:44:39;10.75;;;8.55;;
57087;SDS011;42965;52.846;6.614;2023-06-22T09:47:05;12.73;;;8.10;;
57087;SDS011;42965;52.846;6.614;2023-06-22T09:49:32;14.82;;;13.45;;
57087;SDS011;42965;52.846;6.614;2023-06-22T09:51:58;8.52;;;7.68;;
57087;SDS011;42965;52.846;6.614;2023-06-22T09:54:25;9.65;;;8.55;;
57087;SDS011;42965;52.846;6.614;2023-06-22T09:56:51;10.18;;;9.27;;
57087;SDS011;42965;52.846;6.614;2023-06-22T09:59:18;8.68;;;7.78;;
57087;SDS011;42965;52.846;6.614;2023-06-22T10:01:44;11.00;;;8.02;;
57087;SDS011;42965;52.846;6.614;2023-06-22T10:04:13;8.20;;;7.40;;
57087;SDS011;42965;52.846;6.614;2023-06-22T10:06:40;9.98;;;8.98;;
57087;SDS011;42965;52.846;6.614;2023-06-22T10:09:07;9.88;;;6.95;;
57087;SDS011;42965;52.846;6.614;2023-06-22T10:11:33;8.50;;;6.90;;
57087;SDS011;42965;52.846;6.614;2023-06-22T10:14:00;12.27;;;11.07;;
57087;SDS011;42965;52.846;6.614;2023-06-22T10:16:31;9.80;;;6.95;;
57087;SDS011;42965;52.846;6.614;2023-06-22T10:21:24;10.65;;;9.18;;
57087;SDS011;42965;52.846;6.614;2023-06-22T10:23:52;11.07;;;9.43;;
57087;SDS011;42965;52.846;6.614;2023-06-22T10:26:18;8.90;;;8.00;;
57087;SDS011;42965;52.846;6.614;2023-06-22T10:28:45;10.57;;;8.27;;
57087;SDS011;42965;52.846;6.614;2023-06-22T10:31:12;8.60;;;7.43;;
57087;SDS011;42965;52.846;6.614;2023-06-22T10:33:39;10.68;;;9.65;;
57087;SDS011;42965;52.846;6.614;2023-06-22T10:36:07;10.75;;;9.10;;
57087;SDS011;42965;52.846;6.614;2023-06-22T10:38:33;17.63;;;16.13;;
57087;SDS011;42965;52.846;6.614;2023-06-22T10:40:59;7.72;;;6.93;;
57087;SDS011;42965;52.846;6.614;2023-06-22T10:43:25;9.02;;;7.18;;
57087;SDS011;42965;52.846;6.614;2023-06-22T10:45:52;10.85;;;9.18;;
57087;SDS011;42965;52.846;6.614;2023-06-22T10:48:21;10.63;;;9.63;;
57087;SDS011;42965;52.846;6.614;2023-06-22T10:50:47;11.70;;;9.98;;
57087;SDS011;42965;52.846;6.614;2023-06-22T10:53:13;7.63;;;6.93;;
57087;SDS011;42965;52.846;6.614;2023-06-22T10:55:39;12.13;;;8.40;;
57087;SDS011;42965;52.846;6.614;2023-06-22T10:58:06;7.72;;;6.93;;
57087;SDS011;42965;52.846;6.614;2023-06-22T11:00:32;14.10;;;12.68;;
57087;SDS011;42965;52.846;6.614;2023-06-22T11:03:00;8.45;;;7.63;;
57087;SDS011;42965;52.846;6.614;2023-06-22T11:05:26;8.73;;;7.82;;
57087;SDS011;42965;52.846;6.614;2023-06-22T11:07:52;10.02;;;6.95;;
57087;SDS011;42965;52.846;6.614;2023-06-22T11:10:19;8.13;;;5.75;;
57087;SDS011;42965;52.846;6.614;2023-06-22T11:12:46;9.30;;;6.50;;
57087;SDS011;42965;52.846;6.614;2023-06-22T11:15:12;6.88;;;6.18;;
57087;SDS011;42965;52.846;6.614;2023-06-22T11:17:38;10.25;;;7.55;;
57087;SDS011;42965;52.846;6.614;2023-06-22T11:20:05;13.32;;;11.73;;
57087;SDS011;42965;52.846;6.614;2023-06-22T11:22:37;20.63;;;18.80;;
57087;SDS011;42965;52.846;6.614;2023-06-22T11:25:05;17.65;;;15.85;;
57087;SDS011;42965;52.846;6.614;2023-06-22T11:27:31;13.32;;;11.93;;
57087;SDS011;42965;52.846;6.614;2023-06-22T11:29:57;11.52;;;9.82;;
57087;SDS011;42965;52.846;6.614;2023-06-22T11:32:24;39.00;;;35.60;;
57087;SDS011;42965;52.846;6.614;2023-06-22T11:34:51;101.00;;;92.25;;
57087;SDS011;42965;52.846;6.614;2023-06-22T11:37:17;15.40;;;14.00;;
57087;SDS011;42965;52.846;6.614;2023-06-22T11:39:43;16.25;;;13.55;;
57087;SDS011;42965;52.846;6.614;2023-06-22T11:42:10;16.98;;;15.27;;
57087;SDS011;42965;52.846;6.614;2023-06-22T11:44:36;13.18;;;11.75;;
57087;SDS011;42965;52.846;6.614;2023-06-22T11:47:02;41.60;;;37.70;;
57087;SDS011;42965;52.846;6.614;2023-06-22T11:49:30;11.38;;;10.18;;
57087;SDS011;42965;52.846;6.614;2023-06-22T11:51:57;13.48;;;10.30;;
57087;SDS011;42965;52.846;6.614;2023-06-22T11:54:23;24.02;;;21.55;;
57087;SDS011;42965;52.846;6.614;2023-06-22T11:56:49;25.25;;;22.88;;
57087;SDS011;42965;52.846;6.614;2023-06-22T11:59:15;16.48;;;14.85;;
57087;SDS011;42965;52.846;6.614;2023-06-22T12:01:42;14.88;;;13.27;;
57087;SDS011;42965;52.846;6.614;2023-06-22T12:04:08;14.38;;;12.93;;
57087;SDS011;42965;52.846;6.614;2023-06-22T12:06:37;12.23;;;10.55;;
57087;SDS011;42965;52.846;6.614;2023-06-22T12:09:07;10.20;;;9.07;;
57087;SDS011;42965;52.846;6.614;2023-06-22T12:11:33;17.27;;;13.48;;
57087;SDS011;42965;52.846;6.614;2023-06-22T12:14:00;10.75;;;8.60;;
57087;SDS011;42965;52.846;6.614;2023-06-22T12:16:30;20.20;;;18.17;;
57087;SDS011;42965;52.846;6.614;2023-06-22T12:18:56;33.55;;;30.40;;
57087;SDS011;42965;52.846;6.614;2023-06-22T12:21:23;71.53;;;65.07;;
57087;SDS011;42965;52.846;6.614;2023-06-22T12:23:49;19.02;;;17.23;;
57087;SDS011;42965;52.846;6.614;2023-06-22T12:26:15;18.67;;;16.85;;
57087;SDS011;42965;52.846;6.614;2023-06-22T12:28:42;17.38;;;15.63;;
57087;SDS011;42965;52.846;6.614;2023-06-22T12:31:08;22.00;;;19.85;;
57087;SDS011;42965;52.846;6.614;2023-06-22T12:33:35;12.10;;;10.77;;
57087;SDS011;42965;52.846;6.614;2023-06-22T12:36:01;8.55;;;7.20;;
57087;SDS011;42965;52.846;6.614;2023-06-22T12:38:27;11.05;;;9.75;;
57087;SDS011;42965;52.846;6.614;2023-06-22T12:40:53;14.27;;;12.82;;
57087;SDS011;42965;52.846;6.614;2023-06-22T12:43:20;18.13;;;16.35;;
57087;SDS011;42965;52.846;6.614;2023-06-22T12:45:46;16.13;;;14.50;;
57087;SDS011;42965;52.846;6.614;2023-06-22T12:48:12;9.48;;;8.25;;
57087;SDS011;42965;52.846;6.614;2023-06-22T12:50:39;14.23;;;12.23;;
57087;SDS011;42965;52.846;6.614;2023-06-22T12:53:05;9.95;;;8.70;;
57087;SDS011;42965;52.846;6.614;2023-06-22T12:55:31;11.52;;;10.02;;
57087;SDS011;42965;52.846;6.614;2023-06-22T12:57:58;11.93;;;10.73;;
57087;SDS011;42965;52.846;6.614;2023-06-22T13:00:24;11.65;;;10.35;;
57087;SDS011;42965;52.846;6.614;2023-06-22T13:02:50;12.95;;;11.30;;
57087;SDS011;42965;52.846;6.614;2023-06-22T13:05:17;10.73;;;8.50;;
57087;SDS011;42965;52.846;6.614;2023-06-22T13:07:44;8.80;;;7.55;;
57087;SDS011;42965;52.846;6.614;2023-06-22T13:10:11;9.98;;;8.45;;
57087;SDS011;42965;52.846;6.614;2023-06-22T13:12:37;22.48;;;19.63;;
57087;SDS011;42965;52.846;6.614;2023-06-22T13:15:04;6.97;;;6.28;;
57087;SDS011;42965;52.846;6.614;2023-06-22T13:17:31;15.20;;;13.85;;
57087;SDS011;42965;52.846;6.614;2023-06-22T13:19:58;11.77;;;10.02;;
57087;SDS011;42965;52.846;6.614;2023-06-22T13:22:34;6.75;;;6.05;;
57087;SDS011;42965;52.846;6.614;2023-06-22T13:25:09;7.47;;;6.03;;
57087;SDS011;42965;52.846;6.614;2023-06-22T13:27:41;6.80;;;5.40;;
57087;SDS011;42965;52.846;6.614;2023-06-22T13:30:08;7.50;;;5.82;;
57087;SDS011;42965;52.846;6.614;2023-06-22T13:32:35;6.70;;;5.03;;
57087;SDS011;42965;52.846;6.614;2023-06-22T13:35:02;7.53;;;5.90;;
57087;SDS011;42965;52.846;6.614;2023-06-22T13:37:28;7.03;;;5.55;;
57087;SDS011;42965;52.846;6.614;2023-06-22T13:39:54;7.68;;;5.75;;
57087;SDS011;42965;52.846;6.614;2023-06-22T13:42:21;7.35;;;5.50;;
57087;SDS011;42965;52.846;6.614;2023-06-22T13:44:48;8.98;;;6.20;;
57087;SDS011;42965;52.846;6.614;2023-06-22T13:47:14;8.95;;;6.40;;
57087;SDS011;42965;52.846;6.614;2023-06-22T13:49:41;7.63;;;6.30;;
57087;SDS011;42965;52.846;6.614;2023-06-22T13:52:08;8.80;;;6.93;;
57087;SDS011;42965;52.846;6.614;2023-06-22T13:54:36;9.32;;;8.20;;
57087;SDS011;42965;52.846;6.614;2023-06-22T13:57:02;8.18;;;7.32;;
57087;SDS011;42965;52.846;6.614;2023-06-22T13:59:29;9.02;;;7.95;;
57087;SDS011;42965;52.846;6.614;2023-06-22T14:01:56;8.60;;;7.70;;
57087;SDS011;42965;52.846;6.614;2023-06-22T14:04:25;8.80;;;7.90;;
57087;SDS011;42965;52.846;6.614;2023-06-22T14:06:52;10.32;;;7.95;;
57087;SDS011;42965;52.846;6.614;2023-06-22T14:09:18;9.57;;;7.53;;
57087;SDS011;42965;52.846;6.614;2023-06-22T14:11:45;9.65;;;7.63;;
57087;SDS011;42965;52.846;6.614;2023-06-22T14:14:14;8.55;;;7.70;;
57087;SDS011;42965;52.846;6.614;2023-06-22T14:16:41;32.28;;;29.35;;
57087;SDS011;42965;52.846;6.614;2023-06-22T14:19:07;16.48;;;12.90;;
57087;SDS011;42965;52.846;6.614;2023-06-22T14:21:33;9.65;;;8.30;;
57087;SDS011;42965;52.846;6.614;2023-06-22T14:23:59;14.60;;;13.00;;
57087;SDS011;42965;52.846;6.614;2023-06-22T14:26:26;12.82;;;11.55;;
57087;SDS011;42965;52.846;6.614;2023-06-22T14:28:52;15.20;;;13.70;;
57087;SDS011;42965;52.846;6.614;2023-06-22T14:31:19;12.18;;;10.90;;
57087;SDS011;42965;52.846;6.614;2023-06-22T14:33:49;14.30;;;8.48;;
57087;SDS011;42965;52.846;6.614;2023-06-22T14:36:16;60.00;;;54.50;;
57087;SDS011;42965;52.846;6.614;2023-06-22T14:38:43;12.00;;;9.68;;